createdAt,value
2022-08-01T00:00:36.505Z,17.12
2022-08-01T00:01:26.468Z,17.14
2022-08-01T00:02:16.498Z,17.15
2022-08-01T00:03:06.448Z,17.15
2022-08-01T00:03:56.449Z,17.15
2022-08-01T00:04:46.427Z,17.09
2022-08-01T00:05:36.418Z,17.06
2022-08-01T00:06:26.409Z,17.05
2022-08-01T00:07:16.397Z,17.02
2022-08-01T00:08:06.393Z,16.99
2022-08-01T00:08:56.379Z,16.99
2022-08-01T00:09:46.398Z,16.98
2022-08-01T00:10:36.372Z,16.98
2022-08-01T00:11:26.356Z,16.99
2022-08-01T00:12:16.339Z,17.00
2022-08-01T00:13:06.340Z,16.99
2022-08-01T00:13:56.327Z,16.98
2022-08-01T00:14:46.348Z,16.92
2022-08-01T00:15:36.300Z,16.88
2022-08-01T00:16:26.298Z,16.85
2022-08-01T00:17:16.288Z,16.81
2022-08-01T00:18:06.278Z,16.78
2022-08-01T00:18:56.279Z,16.80
2022-08-01T00:19:46.265Z,16.80
2022-08-01T00:20:36.248Z,16.81
2022-08-01T00:21:26.244Z,16.82
2022-08-01T00:22:16.228Z,16.81
2022-08-01T00:23:06.228Z,16.81
2022-08-01T00:23:56.225Z,16.78
2022-08-01T00:24:46.208Z,16.77
2022-08-01T00:25:36.197Z,16.77
2022-08-01T00:26:26.195Z,16.72
2022-08-01T00:27:16.175Z,16.70
2022-08-01T00:28:06.168Z,16.67
2022-08-01T00:28:56.177Z,16.66
2022-08-01T00:30:12.033Z,16.65
2022-08-01T00:30:37.145Z,16.66
2022-08-01T00:31:26.136Z,16.63
2022-08-01T00:32:16.121Z,16.65
2022-08-01T00:33:06.117Z,16.63
2022-08-01T00:33:56.117Z,16.63
2022-08-01T00:34:46.097Z,16.60
2022-08-01T00:35:36.086Z,16.60
2022-08-01T00:36:26.088Z,16.62
2022-08-01T00:37:16.242Z,16.62
2022-08-01T00:38:06.066Z,16.62
2022-08-01T00:38:56.047Z,16.62
2022-08-01T00:39:46.058Z,16.60
2022-08-01T00:40:36.029Z,16.59
2022-08-01T00:41:26.027Z,16.59
2022-08-01T00:42:16.013Z,16.59
2022-08-01T00:43:06.007Z,16.55
2022-08-01T00:43:56.007Z,16.59
2022-08-01T00:44:45.995Z,16.59
2022-08-01T00:45:35.987Z,16.57
2022-08-01T00:46:26.014Z,16.57
2022-08-01T00:47:15.966Z,16.55
2022-08-01T00:48:05.955Z,16.54
2022-08-01T00:48:56.021Z,16.52
2022-08-01T00:49:45.937Z,16.52
2022-08-01T00:50:35.925Z,16.50
2022-08-01T00:51:25.917Z,16.50
2022-08-01T00:52:15.905Z,16.51
2022-08-01T00:53:05.896Z,16.48
2022-08-01T00:53:55.897Z,16.48
2022-08-01T00:54:45.887Z,16.45
2022-08-01T00:55:35.867Z,16.37
2022-08-01T00:56:25.863Z,16.33
2022-08-01T00:57:15.847Z,16.27
2022-08-01T00:58:06.845Z,16.22
2022-08-01T00:58:55.832Z,16.16
2022-08-01T00:59:45.844Z,16.08
2022-08-01T01:00:52.979Z,16.06
2022-08-01T01:01:39.294Z,16.04
2022-08-01T01:02:16.793Z,16.03
2022-08-01T01:03:05.786Z,16.01
2022-08-01T01:03:59.025Z,15.96
2022-08-01T01:04:45.766Z,15.96
2022-08-01T01:05:37.550Z,15.96
2022-08-01T01:06:25.752Z,15.99
2022-08-01T01:07:15.766Z,16.01
2022-08-01T01:08:05.736Z,16.03
2022-08-01T01:08:55.716Z,16.04
2022-08-01T01:09:45.715Z,16.04
2022-08-01T01:10:35.705Z,16.06
2022-08-01T01:11:25.695Z,16.07
2022-08-01T01:12:15.684Z,16.04
2022-08-01T01:13:05.694Z,16.04
2022-08-01T01:13:55.665Z,16.03
2022-08-01T01:14:45.664Z,15.99
2022-08-01T01:15:35.645Z,16.01
2022-08-01T01:16:25.645Z,15.98
2022-08-01T01:17:15.638Z,15.98
2022-08-01T01:18:05.623Z,15.93
2022-08-01T01:18:55.605Z,15.92
2022-08-01T01:19:45.634Z,15.92
2022-08-01T01:20:35.597Z,15.92
2022-08-01T01:21:25.585Z,15.93
2022-08-01T01:22:15.572Z,15.91
2022-08-01T01:23:05.583Z,15.88
2022-08-01T01:23:55.556Z,15.88
2022-08-01T01:24:45.546Z,15.91
2022-08-01T01:25:35.545Z,15.89
2022-08-01T01:26:25.535Z,15.89
2022-08-01T01:27:15.522Z,15.88
2022-08-01T01:28:05.513Z,15.84
2022-08-01T01:28:55.503Z,15.81
2022-08-01T01:30:00.212Z,15.77
2022-08-01T01:30:36.483Z,15.73
2022-08-01T01:31:25.476Z,15.70
2022-08-01T01:32:15.464Z,15.68
2022-08-01T01:33:05.454Z,15.67
2022-08-01T01:33:55.444Z,15.67
2022-08-01T01:34:45.470Z,15.67
2022-08-01T01:35:35.427Z,15.67
2022-08-01T01:36:25.417Z,15.64
2022-08-01T01:37:15.405Z,15.66
2022-08-01T01:38:05.445Z,15.66
2022-08-01T01:38:55.386Z,15.67
2022-08-01T01:39:45.466Z,15.67
2022-08-01T01:40:36.371Z,15.67
2022-08-01T01:41:25.365Z,15.67
2022-08-01T01:42:15.352Z,15.60
2022-08-01T01:43:05.345Z,15.58
2022-08-01T01:43:55.347Z,15.56
2022-08-01T01:44:45.344Z,15.56
2022-08-01T01:45:35.314Z,15.58
2022-08-01T01:46:25.315Z,15.58
2022-08-01T01:47:15.305Z,15.59
2022-08-01T01:48:05.293Z,15.59
2022-08-01T01:48:55.333Z,15.59
2022-08-01T01:49:45.275Z,15.59
2022-08-01T01:50:35.254Z,15.60
2022-08-01T01:51:25.254Z,15.60
2022-08-01T01:52:15.245Z,15.59
2022-08-01T01:53:05.235Z,15.56
2022-08-01T01:53:55.236Z,15.56
2022-08-01T01:54:45.214Z,15.52
2022-08-01T01:55:49.030Z,15.51
2022-08-01T01:56:26.194Z,15.49
2022-08-01T01:57:15.183Z,15.49
2022-08-01T01:58:05.195Z,15.51
2022-08-01T01:58:55.164Z,15.49
2022-08-01T01:59:45.162Z,15.49
2022-08-01T02:00:35.163Z,15.49
2022-08-01T02:02:05.464Z,15.49
2022-08-01T02:02:16.460Z,15.52
2022-08-01T02:03:05.203Z,15.52
2022-08-01T02:03:55.111Z,15.53
2022-08-01T02:04:45.105Z,15.55
2022-08-01T02:05:35.093Z,15.53
2022-08-01T02:06:25.092Z,15.52
2022-08-01T02:07:15.091Z,15.51
2022-08-01T02:08:05.073Z,15.46
2022-08-01T02:08:55.054Z,15.43
2022-08-01T02:09:45.054Z,15.38
2022-08-01T02:10:35.033Z,15.33
2022-08-01T02:11:25.033Z,15.31
2022-08-01T02:12:15.391Z,15.28
2022-08-01T02:13:05.024Z,15.27
2022-08-01T02:13:55.001Z,15.28
2022-08-01T02:14:44.994Z,15.28
2022-08-01T02:15:35.033Z,15.28
2022-08-01T02:16:24.974Z,15.25
2022-08-01T02:17:14.963Z,15.23
2022-08-01T02:18:04.963Z,15.25
2022-08-01T02:18:54.943Z,15.23
2022-08-01T02:19:44.952Z,15.22
2022-08-01T02:20:34.932Z,15.20
2022-08-01T02:21:24.942Z,15.22
2022-08-01T02:22:14.919Z,15.23
2022-08-01T02:23:04.900Z,15.25
2022-08-01T02:23:54.894Z,15.27
2022-08-01T02:24:44.892Z,15.28
2022-08-01T02:25:34.873Z,15.30
2022-08-01T02:26:24.863Z,15.30
2022-08-01T02:27:14.864Z,15.28
2022-08-01T02:28:04.843Z,15.28
2022-08-01T02:28:54.840Z,15.27
2022-08-01T02:29:44.824Z,15.25
2022-08-01T02:30:34.931Z,15.27
2022-08-01T02:31:24.808Z,15.27
2022-08-01T02:32:14.813Z,15.27
2022-08-01T02:33:04.783Z,15.27
2022-08-01T02:33:54.782Z,15.28
2022-08-01T02:34:44.764Z,15.28
2022-08-01T02:35:34.773Z,15.25
2022-08-01T02:36:29.009Z,15.22
2022-08-01T02:37:15.742Z,15.18
2022-08-01T02:38:04.732Z,15.12
2022-08-01T02:38:54.723Z,15.09
2022-08-01T02:39:44.716Z,15.04
2022-08-01T02:40:34.723Z,15.01
2022-08-01T02:41:25.807Z,14.98
2022-08-01T02:42:14.692Z,14.98
2022-08-01T02:43:04.680Z,14.98
2022-08-01T02:43:54.673Z,15.00
2022-08-01T02:44:44.671Z,15.01
2022-08-01T02:45:34.653Z,14.98
2022-08-01T02:46:24.641Z,14.95
2022-08-01T02:47:14.631Z,14.93
2022-08-01T02:48:04.612Z,14.90
2022-08-01T02:48:54.675Z,14.86
2022-08-01T02:49:44.612Z,14.87
2022-08-01T02:50:34.592Z,14.85
2022-08-01T02:51:24.580Z,14.82
2022-08-01T02:52:14.573Z,14.82
2022-08-01T02:53:04.562Z,14.79
2022-08-01T02:53:54.561Z,14.79
2022-08-01T02:54:44.559Z,14.79
2022-08-01T02:55:34.541Z,14.80
2022-08-01T02:56:24.522Z,14.83
2022-08-01T02:57:14.534Z,14.83
2022-08-01T02:58:04.503Z,14.83
2022-08-01T02:58:54.501Z,14.85
2022-08-01T02:59:44.906Z,14.85
2022-08-01T03:00:34.482Z,14.85
2022-08-01T03:01:24.526Z,14.85
2022-08-01T03:02:14.496Z,14.85
2022-08-01T03:03:04.461Z,14.82
2022-08-01T03:03:54.461Z,14.80
2022-08-01T03:04:44.430Z,14.80
2022-08-01T03:05:34.421Z,14.82
2022-08-01T03:06:24.411Z,14.82
2022-08-01T03:07:14.411Z,14.80
2022-08-01T03:08:04.391Z,14.75
2022-08-01T03:08:55.401Z,14.74
2022-08-01T03:09:44.374Z,14.71
2022-08-01T03:10:34.369Z,14.72
2022-08-01T03:11:24.352Z,14.72
2022-08-01T03:12:14.364Z,14.74
2022-08-01T03:13:04.331Z,14.78
2022-08-01T03:13:54.330Z,14.78
2022-08-01T03:14:44.352Z,14.78
2022-08-01T03:15:34.311Z,14.78
2022-08-01T03:16:24.313Z,14.78
2022-08-01T03:17:14.290Z,14.79
2022-08-01T03:18:04.302Z,14.80
2022-08-01T03:18:54.271Z,14.80
2022-08-01T03:19:44.260Z,14.78
2022-08-01T03:20:34.252Z,14.67
2022-08-01T03:21:24.241Z,14.64
2022-08-01T03:22:14.232Z,14.60
2022-08-01T03:23:04.220Z,14.57
2022-08-01T03:23:55.301Z,14.56
2022-08-01T03:24:44.209Z,14.54
2022-08-01T03:25:34.198Z,14.53
2022-08-01T03:26:24.181Z,14.53
2022-08-01T03:27:14.187Z,14.53
2022-08-01T03:28:04.168Z,14.53
2022-08-01T03:28:54.159Z,14.53
2022-08-01T03:29:44.161Z,14.52
2022-08-01T03:30:34.140Z,14.53
2022-08-01T03:31:24.130Z,14.53
2022-08-01T03:32:14.121Z,14.53
2022-08-01T03:33:04.109Z,14.53
2022-08-01T03:33:54.108Z,14.53
2022-08-01T03:34:44.109Z,14.54
2022-08-01T03:35:34.081Z,14.56
2022-08-01T03:36:24.072Z,14.56
2022-08-01T03:37:14.070Z,14.54
2022-08-01T03:38:19.482Z,14.53
2022-08-01T03:38:55.049Z,14.49
2022-08-01T03:39:44.029Z,14.48
2022-08-01T03:40:34.050Z,14.45
2022-08-01T03:41:24.017Z,14.42
2022-08-01T03:42:14.009Z,14.41
2022-08-01T03:43:03.990Z,14.39
2022-08-01T03:43:53.990Z,14.36
2022-08-01T03:44:43.977Z,14.36
2022-08-01T03:45:33.970Z,14.34
2022-08-01T03:46:24.483Z,14.30
2022-08-01T03:47:13.971Z,14.27
2022-08-01T03:48:03.939Z,14.29
2022-08-01T03:48:54.025Z,14.27
2022-08-01T03:49:43.920Z,14.29
2022-08-01T03:50:33.921Z,14.30
2022-08-01T03:51:23.908Z,14.30
2022-08-01T03:52:13.910Z,14.31
2022-08-01T03:53:03.896Z,14.30
2022-08-01T03:53:53.877Z,14.27
2022-08-01T03:54:43.860Z,14.26
2022-08-01T03:55:33.858Z,14.24
2022-08-01T03:56:23.839Z,14.23
2022-08-01T03:57:23.352Z,14.23
2022-08-01T03:58:09.551Z,14.23
2022-08-01T03:58:54.818Z,14.19
2022-08-01T03:59:43.807Z,14.16
2022-08-01T04:00:33.819Z,14.16
2022-08-01T04:01:23.816Z,14.16
2022-08-01T04:02:13.779Z,14.19
2022-08-01T04:03:03.767Z,14.20
2022-08-01T04:03:53.759Z,14.24
2022-08-01T04:04:43.749Z,14.24
2022-08-01T04:05:33.768Z,14.29
2022-08-01T04:06:23.727Z,14.27
2022-08-01T04:07:13.727Z,14.26
2022-08-01T04:08:03.715Z,14.23
2022-08-01T04:08:53.706Z,14.24
2022-08-01T04:09:43.700Z,14.26
2022-08-01T04:10:33.694Z,14.26
2022-08-01T04:11:23.688Z,14.24
2022-08-01T04:12:13.668Z,14.24
2022-08-01T04:13:03.656Z,14.23
2022-08-01T04:13:53.656Z,14.23
2022-08-01T04:14:43.637Z,14.24
2022-08-01T04:15:33.659Z,14.23
2022-08-01T04:16:23.617Z,14.21
2022-08-01T04:17:13.617Z,14.20
2022-08-01T04:18:03.597Z,14.19
2022-08-01T04:18:53.609Z,14.19
2022-08-01T04:19:43.577Z,14.13
2022-08-01T04:20:33.586Z,14.12
2022-08-01T04:21:23.564Z,14.08
2022-08-01T04:22:13.565Z,14.04
2022-08-01T04:23:03.540Z,13.99
2022-08-01T04:23:53.643Z,13.98
2022-08-01T04:24:43.526Z,13.94
2022-08-01T04:25:33.519Z,13.96
2022-08-01T04:26:23.508Z,13.96
2022-08-01T04:27:13.501Z,13.99
2022-08-01T04:28:03.490Z,14.01
2022-08-01T04:28:53.495Z,14.01
2022-08-01T04:29:43.468Z,14.02
2022-08-01T04:30:33.458Z,14.01
2022-08-01T04:31:23.447Z,14.02
2022-08-01T04:32:13.447Z,13.98
2022-08-01T04:33:03.439Z,13.98
2022-08-01T04:33:53.459Z,13.96
2022-08-01T04:34:43.407Z,13.94
2022-08-01T04:36:02.019Z,13.94
2022-08-01T04:36:24.388Z,13.94
2022-08-01T04:37:13.384Z,13.93
2022-08-01T04:38:03.373Z,13.93
2022-08-01T04:38:53.385Z,13.94
2022-08-01T04:39:50.312Z,13.94
2022-08-01T04:40:34.347Z,13.94
2022-08-01T04:41:23.334Z,13.96
2022-08-01T04:42:13.333Z,13.98
2022-08-01T04:43:03.314Z,13.98
2022-08-01T04:43:53.503Z,13.99
2022-08-01T04:44:43.306Z,14.01
2022-08-01T04:45:33.298Z,14.04
2022-08-01T04:46:23.280Z,14.06
2022-08-01T04:47:13.275Z,14.09
2022-08-01T04:48:03.268Z,14.09
2022-08-01T04:48:53.320Z,14.09
2022-08-01T04:49:48.454Z,14.09
2022-08-01T04:50:34.234Z,14.09
2022-08-01T04:51:23.215Z,14.09
2022-08-01T04:52:18.040Z,14.11
2022-08-01T04:53:04.236Z,14.11
2022-08-01T04:53:53.222Z,14.12
2022-08-01T04:54:43.183Z,14.12
2022-08-01T04:55:33.176Z,14.16
2022-08-01T04:56:23.164Z,14.19
2022-08-01T04:57:13.155Z,14.20
2022-08-01T04:58:03.146Z,14.23
2022-08-01T04:58:53.135Z,14.26
2022-08-01T04:59:43.304Z,14.26
2022-08-01T05:00:33.124Z,14.26
2022-08-01T05:01:23.184Z,14.27
2022-08-01T05:02:13.104Z,14.27
2022-08-01T05:03:03.092Z,14.29
2022-08-01T05:03:53.094Z,14.29
2022-08-01T05:04:43.074Z,14.27
2022-08-01T05:05:33.066Z,14.29
2022-08-01T05:06:23.053Z,14.31
2022-08-01T05:07:13.044Z,14.34
2022-08-01T05:08:03.047Z,14.34
2022-08-01T05:08:53.042Z,14.34
2022-08-01T05:09:43.035Z,14.34
2022-08-01T05:10:33.012Z,14.35
2022-08-01T05:11:23.003Z,14.38
2022-08-01T05:12:13.006Z,14.41
2022-08-01T05:13:02.979Z,14.39
2022-08-01T05:13:52.972Z,14.42
2022-08-01T05:14:42.953Z,14.42
2022-08-01T05:15:32.952Z,14.44
2022-08-01T05:16:22.987Z,14.45
2022-08-01T05:17:12.931Z,14.45
2022-08-01T05:18:02.913Z,14.46
2022-08-01T05:18:52.913Z,14.46
2022-08-01T05:19:42.914Z,14.46
2022-08-01T05:20:32.901Z,14.49
2022-08-01T05:21:22.883Z,14.49
2022-08-01T05:22:12.873Z,14.48
2022-08-01T05:23:02.865Z,14.48
2022-08-01T05:23:52.862Z,14.49
2022-08-01T05:24:42.843Z,14.49
2022-08-01T05:25:56.368Z,14.52
2022-08-01T05:26:23.823Z,14.52
2022-08-01T05:27:13.521Z,14.53
2022-08-01T05:28:02.809Z,14.54
2022-08-01T05:28:52.801Z,14.53
2022-08-01T05:29:44.786Z,14.53
2022-08-01T05:30:32.792Z,14.56
2022-08-01T05:31:22.762Z,14.54
2022-08-01T05:32:12.768Z,14.54
2022-08-01T05:33:02.749Z,14.56
2022-08-01T05:33:52.771Z,14.56
2022-08-01T05:34:42.733Z,14.56
2022-08-01T05:35:48.165Z,14.59
2022-08-01T05:36:23.713Z,14.57
2022-08-01T05:37:12.704Z,14.57
2022-08-01T05:38:02.691Z,14.54
2022-08-01T05:38:52.703Z,14.56
2022-08-01T05:39:42.674Z,14.54
2022-08-01T05:40:32.691Z,14.56
2022-08-01T05:41:22.651Z,14.59
2022-08-01T05:42:12.650Z,14.59
2022-08-01T05:43:02.632Z,14.61
2022-08-01T05:43:52.630Z,14.63
2022-08-01T05:44:42.614Z,14.64
2022-08-01T05:45:32.611Z,14.67
2022-08-01T05:46:22.634Z,14.67
2022-08-01T05:47:12.591Z,14.69
2022-08-01T05:48:02.582Z,14.71
2022-08-01T05:48:52.622Z,14.74
2022-08-01T05:49:42.571Z,14.75
2022-08-01T05:50:32.562Z,14.79
2022-08-01T05:51:22.542Z,14.80
2022-08-01T05:52:12.551Z,14.83
2022-08-01T05:53:02.528Z,14.85
2022-08-01T05:53:52.511Z,14.85
2022-08-01T05:54:42.524Z,14.87
2022-08-01T05:55:32.499Z,14.90
2022-08-01T05:56:22.491Z,14.91
2022-08-01T05:57:12.556Z,14.93
2022-08-01T05:58:02.471Z,14.98
2022-08-01T05:58:52.461Z,15.01
2022-08-01T05:59:42.464Z,15.04
2022-08-01T06:00:32.438Z,15.05
2022-08-01T06:01:22.431Z,15.07
2022-08-01T06:02:12.470Z,15.05
2022-08-01T06:03:02.436Z,15.05
2022-08-01T06:03:52.403Z,15.05
2022-08-01T06:04:42.419Z,15.04
2022-08-01T06:05:32.386Z,15.04
2022-08-01T06:06:25.303Z,15.07
2022-08-01T06:07:12.360Z,15.09
2022-08-01T06:08:02.360Z,15.11
2022-08-01T06:08:52.370Z,15.13
2022-08-01T06:09:42.350Z,15.15
2022-08-01T06:10:32.349Z,15.15
2022-08-01T06:11:22.329Z,15.19
2022-08-01T06:12:12.309Z,15.22
2022-08-01T06:13:02.309Z,15.23
2022-08-01T06:13:52.299Z,15.28
2022-08-01T06:14:42.290Z,15.33
2022-08-01T06:15:32.282Z,15.35
2022-08-01T06:16:22.270Z,15.38
2022-08-01T06:17:12.269Z,15.41
2022-08-01T06:18:02.266Z,15.44
2022-08-01T06:18:56.536Z,15.46
2022-08-01T06:19:42.229Z,15.49
2022-08-01T06:20:32.228Z,15.53
2022-08-01T06:21:22.208Z,15.56
2022-08-01T06:22:12.209Z,15.59
2022-08-01T06:23:05.812Z,15.62
2022-08-01T06:23:53.180Z,15.64
2022-08-01T06:24:42.179Z,15.68
2022-08-01T06:25:32.158Z,15.73
2022-08-01T06:26:22.167Z,15.74
2022-08-01T06:27:21.922Z,15.77
2022-08-01T06:28:03.139Z,15.80
2022-08-01T06:28:52.118Z,15.85
2022-08-01T06:29:42.118Z,15.88
2022-08-01T06:30:33.115Z,15.89
2022-08-01T06:31:22.129Z,15.92
2022-08-01T06:32:12.105Z,15.93
2022-08-01T06:33:03.088Z,15.99
2022-08-01T06:33:52.069Z,16.03
2022-08-01T06:34:42.066Z,16.06
2022-08-01T06:35:32.048Z,16.07
2022-08-01T06:36:22.058Z,16.10
2022-08-01T06:37:12.035Z,16.13
2022-08-01T06:38:02.030Z,16.13
2022-08-01T06:38:52.008Z,16.16
2022-08-01T06:39:42.008Z,16.17
2022-08-01T06:40:31.995Z,16.23
2022-08-01T06:41:21.995Z,16.26
2022-08-01T06:42:11.996Z,16.27
2022-08-01T06:43:01.967Z,16.29
2022-08-01T06:43:51.957Z,16.34
2022-08-01T06:44:41.955Z,16.36
2022-08-01T06:45:31.937Z,16.41
2022-08-01T06:46:21.946Z,16.44
2022-08-01T06:47:11.917Z,16.47
2022-08-01T06:48:01.947Z,16.51
2022-08-01T06:48:51.988Z,16.54
2022-08-01T06:49:41.897Z,16.57
2022-08-01T06:50:31.890Z,16.62
2022-08-01T06:51:21.900Z,16.65
2022-08-01T06:52:11.868Z,16.69
2022-08-01T06:53:01.868Z,16.73
2022-08-01T06:53:51.867Z,16.77
2022-08-01T06:54:41.846Z,16.80
2022-08-01T06:55:31.827Z,16.84
2022-08-01T06:56:21.834Z,16.85
2022-08-01T06:57:11.816Z,16.91
2022-08-01T06:58:01.808Z,16.96
2022-08-01T06:58:51.807Z,16.99
2022-08-01T06:59:41.803Z,17.03
2022-08-01T07:00:32.811Z,17.07
2022-08-01T07:01:21.835Z,17.14
2022-08-01T07:02:11.877Z,17.20
2022-08-01T07:03:01.758Z,17.30
2022-08-01T07:03:53.092Z,17.38
2022-08-01T07:04:41.737Z,17.45
2022-08-01T07:05:31.724Z,17.58
2022-08-01T07:06:21.716Z,17.70
2022-08-01T07:07:11.727Z,17.77
2022-08-01T07:08:01.707Z,17.92
2022-08-01T07:08:51.696Z,17.98
2022-08-01T07:09:41.685Z,18.09
2022-08-01T07:10:31.675Z,18.26
2022-08-01T07:11:21.666Z,18.41
2022-08-01T07:12:11.653Z,18.49
2022-08-01T07:13:01.666Z,18.59
2022-08-01T07:13:51.636Z,18.69
2022-08-01T07:14:41.626Z,18.79
2022-08-01T07:15:31.616Z,18.89
2022-08-01T07:16:21.618Z,18.96
2022-08-01T07:17:11.629Z,19.02
2022-08-01T07:18:01.596Z,19.15
2022-08-01T07:18:51.583Z,19.25
2022-08-01T07:19:41.605Z,19.32
2022-08-01T07:20:36.233Z,19.40
2022-08-01T07:21:39.943Z,19.46
2022-08-01T07:22:12.556Z,19.49
2022-08-01T07:23:02.547Z,19.58
2022-08-01T07:23:51.542Z,19.62
2022-08-01T07:24:43.379Z,19.70
2022-08-01T07:25:31.538Z,19.78
2022-08-01T07:26:21.575Z,19.83
2022-08-01T07:27:23.222Z,19.89
2022-08-01T07:28:02.513Z,20.01
2022-08-01T07:28:51.487Z,20.12
2022-08-01T07:29:41.486Z,20.22
2022-08-01T07:30:31.467Z,20.30
2022-08-01T07:31:21.466Z,20.41
2022-08-01T07:32:11.454Z,20.48
2022-08-01T07:33:01.473Z,20.57
2022-08-01T07:33:51.435Z,20.63
2022-08-01T07:34:41.428Z,20.63
2022-08-01T07:35:31.417Z,20.68
2022-08-01T07:36:21.414Z,20.69
2022-08-01T07:37:11.402Z,20.75
2022-08-01T07:38:01.397Z,20.81
2022-08-01T07:38:51.396Z,20.91
2022-08-01T07:39:41.384Z,21.00
2022-08-01T07:40:31.366Z,21.01
2022-08-01T07:41:21.364Z,21.06
2022-08-01T07:42:12.715Z,21.12
2022-08-01T07:43:01.344Z,21.13
2022-08-01T07:43:57.289Z,21.18
2022-08-01T07:44:42.327Z,21.27
2022-08-01T07:45:31.306Z,21.31
2022-08-01T07:46:21.304Z,21.40
2022-08-01T07:47:11.305Z,21.43
2022-08-01T07:48:01.296Z,21.46
2022-08-01T07:48:51.347Z,21.49
2022-08-01T07:49:41.386Z,21.49
2022-08-01T07:50:31.282Z,21.52
2022-08-01T07:51:21.247Z,21.58
2022-08-01T07:52:11.246Z,21.66
2022-08-01T07:53:01.235Z,21.67
2022-08-01T07:53:51.246Z,21.70
2022-08-01T07:54:41.228Z,21.81
2022-08-01T07:55:31.195Z,21.96
2022-08-01T07:56:21.194Z,22.02
2022-08-01T07:57:11.185Z,22.08
2022-08-01T07:58:01.287Z,22.14
2022-08-01T07:58:51.166Z,22.19
2022-08-01T07:59:41.156Z,22.23
2022-08-01T08:00:31.163Z,22.26
2022-08-01T08:01:21.178Z,22.30
2022-08-01T08:02:11.685Z,22.35
2022-08-01T08:03:01.116Z,22.38
2022-08-01T08:03:51.105Z,22.42
2022-08-01T08:04:43.696Z,22.45
2022-08-01T08:05:57.875Z,22.49
2022-08-01T08:06:22.106Z,22.54
2022-08-01T08:07:11.065Z,22.59
2022-08-01T08:08:01.067Z,22.66
2022-08-01T08:08:51.047Z,22.70
2022-08-01T08:09:41.056Z,22.82
2022-08-01T08:10:31.036Z,22.85
2022-08-01T08:11:21.026Z,22.86
2022-08-01T08:12:11.014Z,22.89
2022-08-01T08:13:01.015Z,22.96
2022-08-01T08:13:50.993Z,23.04
2022-08-01T08:14:40.986Z,23.15
2022-08-01T08:15:30.967Z,23.19
2022-08-01T08:16:20.978Z,23.29
2022-08-01T08:17:10.967Z,23.35
2022-08-01T08:18:00.966Z,23.41
2022-08-01T08:18:50.935Z,23.45
2022-08-01T08:19:40.932Z,23.45
2022-08-01T08:20:30.937Z,23.45
2022-08-01T08:21:20.914Z,23.49
2022-08-01T08:22:11.160Z,23.50
2022-08-01T08:23:00.895Z,23.53
2022-08-01T08:23:50.876Z,23.59
2022-08-01T08:24:45.597Z,23.63
2022-08-01T08:25:31.856Z,23.68
2022-08-01T08:26:20.847Z,23.74
2022-08-01T08:27:10.838Z,23.82
2022-08-01T08:28:00.827Z,23.89
2022-08-01T08:28:50.825Z,23.93
2022-08-01T08:29:40.826Z,23.93
2022-08-01T08:30:30.809Z,23.93
2022-08-01T08:31:25.762Z,23.93
2022-08-01T08:32:11.777Z,23.94
2022-08-01T08:33:00.768Z,23.96
2022-08-01T08:33:50.755Z,23.99
2022-08-01T08:34:40.747Z,24.02
2022-08-01T08:35:53.437Z,24.05
2022-08-01T08:36:21.728Z,24.04
2022-08-01T08:37:10.713Z,24.05
2022-08-01T08:38:00.706Z,24.04
2022-08-01T08:38:50.707Z,24.02
2022-08-01T08:39:41.209Z,23.97
2022-08-01T08:40:30.674Z,23.96
2022-08-01T08:41:21.480Z,23.97
2022-08-01T08:42:10.683Z,23.93
2022-08-01T08:43:00.648Z,23.82
2022-08-01T08:43:50.635Z,23.87
2022-08-01T08:44:43.806Z,23.90
2022-08-01T08:45:44.592Z,23.90
2022-08-01T08:46:28.039Z,23.92
2022-08-01T08:47:14.741Z,23.97
2022-08-01T08:48:01.587Z,24.04
2022-08-01T08:48:50.655Z,24.00
2022-08-01T08:49:40.620Z,24.02
2022-08-01T08:50:30.568Z,24.06
2022-08-01T08:51:20.564Z,24.09
2022-08-01T08:52:10.553Z,24.14
2022-08-01T08:53:00.528Z,24.14
2022-08-01T08:53:50.541Z,24.15
2022-08-01T08:54:40.507Z,24.16
2022-08-01T08:55:30.508Z,24.21
2022-08-01T08:56:20.488Z,24.30
2022-08-01T08:57:10.477Z,24.39
2022-08-01T08:58:00.468Z,24.45
2022-08-01T08:58:50.457Z,24.49
2022-08-01T08:59:40.467Z,24.51
2022-08-01T09:00:30.429Z,24.52
2022-08-01T09:01:22.771Z,24.56
2022-08-01T09:02:10.619Z,24.61
2022-08-01T09:03:00.481Z,24.64
2022-08-01T09:03:50.403Z,24.66
2022-08-01T09:04:40.389Z,24.70
2022-08-01T09:05:39.045Z,24.77
2022-08-01T09:06:21.381Z,24.79
2022-08-01T09:07:10.377Z,24.82
2022-08-01T09:08:00.358Z,24.84
2022-08-01T09:08:50.358Z,24.79
2022-08-01T09:09:41.568Z,24.82
2022-08-01T09:10:30.318Z,24.86
2022-08-01T09:11:22.799Z,24.97
2022-08-01T09:12:10.497Z,25.04
2022-08-01T09:13:00.299Z,25.12
2022-08-01T09:13:50.290Z,25.19
2022-08-01T09:14:40.309Z,25.26
2022-08-01T09:15:33.905Z,25.34
2022-08-01T09:16:20.259Z,25.42
2022-08-01T09:17:10.270Z,25.48
2022-08-01T09:18:00.240Z,25.51
2022-08-01T09:18:53.650Z,25.49
2022-08-01T09:19:41.528Z,25.46
2022-08-01T09:20:30.213Z,25.41
2022-08-01T09:21:20.212Z,25.31
2022-08-01T09:22:10.487Z,25.22
2022-08-01T09:23:00.187Z,25.20
2022-08-01T09:23:54.386Z,25.22
2022-08-01T09:24:40.159Z,25.22
2022-08-01T09:25:30.159Z,25.20
2022-08-01T09:26:21.196Z,25.23
2022-08-01T09:27:10.141Z,25.26
2022-08-01T09:28:00.138Z,25.26
2022-08-01T09:28:50.138Z,25.30
2022-08-01T09:29:40.962Z,25.31
2022-08-01T09:30:30.118Z,25.36
2022-08-01T09:31:20.089Z,25.39
2022-08-01T09:32:14.116Z,25.38
2022-08-01T09:33:01.100Z,25.34
2022-08-01T09:33:50.722Z,25.36
2022-08-01T09:34:40.049Z,25.38
2022-08-01T09:35:31.783Z,25.41
2022-08-01T09:36:21.037Z,25.49
2022-08-01T09:37:10.204Z,25.57
2022-08-01T09:38:00.028Z,25.64
2022-08-01T09:38:51.130Z,25.72
2022-08-01T09:39:40.004Z,25.82
2022-08-01T09:40:29.995Z,25.86
2022-08-01T09:41:19.990Z,25.90
2022-08-01T09:42:09.979Z,25.86
2022-08-01T09:42:59.971Z,25.83
2022-08-01T09:43:50.042Z,25.82
2022-08-01T09:44:43.619Z,25.89
2022-08-01T09:45:41.258Z,25.89
2022-08-01T09:46:20.961Z,25.94
2022-08-01T09:47:10.169Z,26.00
2022-08-01T09:47:59.928Z,26.04
2022-08-01T09:48:49.922Z,26.11
2022-08-01T09:49:50.924Z,26.09
2022-08-01T09:50:30.880Z,26.13
2022-08-01T09:51:59.116Z,26.16
2022-08-01T09:52:10.871Z,26.16
2022-08-01T09:52:59.881Z,26.13
2022-08-01T09:53:52.361Z,26.01
2022-08-01T09:54:39.831Z,25.94
2022-08-01T09:55:29.821Z,25.98
2022-08-01T09:56:19.829Z,26.06
2022-08-01T09:57:09.811Z,26.03
2022-08-01T09:57:59.809Z,25.94
2022-08-01T09:58:52.548Z,25.86
2022-08-01T09:59:57.283Z,25.90
2022-08-01T10:00:44.813Z,25.94
2022-08-01T10:01:20.752Z,25.97
2022-08-01T10:02:09.752Z,26.04
2022-08-01T10:02:59.769Z,26.12
2022-08-01T10:03:51.179Z,26.20
2022-08-01T10:04:39.721Z,26.29
2022-08-01T10:05:29.720Z,26.34
2022-08-01T10:06:20.720Z,26.42
2022-08-01T10:07:10.205Z,26.47
2022-08-01T10:07:59.682Z,26.49
2022-08-01T10:08:49.745Z,26.50
2022-08-01T10:09:41.187Z,26.57
2022-08-01T10:10:31.543Z,26.65
2022-08-01T10:11:19.650Z,26.71
2022-08-01T10:12:15.583Z,26.75
2022-08-01T10:13:00.642Z,26.79
2022-08-01T10:13:49.623Z,26.86
2022-08-01T10:14:39.611Z,26.84
2022-08-01T10:15:36.338Z,26.78
2022-08-01T10:16:20.613Z,26.75
2022-08-01T10:17:09.772Z,26.73
2022-08-01T10:18:00.573Z,26.79
2022-08-01T10:18:49.572Z,26.84
2022-08-01T10:19:39.560Z,26.88
2022-08-01T10:20:30.870Z,26.91
2022-08-01T10:21:45.474Z,26.87
2022-08-01T10:22:10.554Z,26.84
2022-08-01T10:22:59.534Z,26.73
2022-08-01T10:23:49.514Z,26.66
2022-08-01T10:24:39.503Z,26.49
2022-08-01T10:25:41.885Z,26.53
2022-08-01T10:26:20.483Z,26.61
2022-08-01T10:27:12.130Z,26.68
2022-08-01T10:27:59.484Z,26.75
2022-08-01T10:28:49.462Z,26.81
2022-08-01T10:29:59.111Z,26.84
2022-08-01T10:30:30.473Z,26.87
2022-08-01T10:31:19.449Z,26.91
2022-08-01T10:32:10.443Z,26.96
2022-08-01T10:32:59.413Z,26.83
2022-08-01T10:33:51.725Z,26.72
2022-08-01T10:34:39.393Z,26.61
2022-08-01T10:35:46.556Z,26.50
2022-08-01T10:36:20.375Z,26.42
2022-08-01T10:37:09.712Z,26.46
2022-08-01T10:37:59.385Z,26.53
2022-08-01T10:38:49.352Z,26.59
2022-08-01T10:39:39.334Z,26.61
2022-08-01T10:40:31.069Z,26.75
2022-08-01T10:41:19.315Z,26.87
2022-08-01T10:42:10.930Z,27.02
2022-08-01T10:43:00.317Z,27.06
2022-08-01T10:43:49.295Z,27.11